NERRS METEOROLOGICAL SITE AT NACOTE CRE HADS current weather conditions

sailwx.info

Wind from 016 at 7 knots gusting 11

Air temperature 25.3° C
Dewpoint 24.2° C

Last reported at 2020-Jul-10 08:30 UTC.
Time now 2020-Jul-10 10:08 UTC

Location: N 39°32' W 074°28'.
View on Google Maps.

See reports from other nearby stations

  
Tides and Currents Weather Stations Pressure Air Temp Water Temp Dewpoint Dewpoint Depression Visibility Wind Speed Wind Dir Waves Ship Positions
date/time (UTC)wind fromknots sea level pressurealtimeterstation pressurevisibilityair tempwater tempwave heightnotes
2020-Jul-10 08:30 016 7 gusting 11 25.3
2020-Jul-10 07:30 023 8 gusting 11 25.4
2020-Jul-10 06:30 026 6 gusting 11 25.2
2020-Jul-10 05:30 026 9 gusting 12 25.7
2020-Jul-10 04:30 025 9 gusting 12 25.7
2020-Jul-10 03:30 030 8 gusting 11 25.7
2020-Jul-10 02:30 032 8 gusting 11 25.9
2020-Jul-10 01:30 028 7 gusting 9 25.8
2020-Jul-10 00:30 039 7 gusting 9 26.5
2020-Jul-09 23:30 035 7 gusting 9 27.1
2020-Jul-09 22:30 032 9 gusting 14 27.3
2020-Jul-09 21:30 030 8 gusting 11 27.8
2020-Jul-09 20:30 030 8 gusting 11 27.8
2020-Jul-09 19:30 032 9 gusting 12 27.9
2020-Jul-09 18:30 034 8 gusting 11 27.9
2020-Jul-09 17:30 039 7 gusting 10 27.9
2020-Jul-09 16:30 032 8 gusting 11 27.9
2020-Jul-09 15:30 030 6 gusting 8 27.8
2020-Jul-09 14:30 017 4 gusting 7 27.7
2020-Jul-09 13:30 053 2 gusting 4 26.4
2020-Jul-09 12:30 316 1 gusting 3 24.5
2020-Jul-09 11:30 347 1 gusting 3 23.1
2020-Jul-09 10:30 324 1 gusting 3 22.7
2020-Jul-09 09:30 041 0 gusting 0 22.3
2020-Jul-09 08:30 189 1 gusting 2 22.9
2020-Jul-09 07:30 039 0 gusting 1 22.8
2020-Jul-09 06:30 309 0 gusting 1 23.2
2020-Jul-09 05:30 150 3 gusting 5 23.9
2020-Jul-09 04:30 128 0 gusting 2 23.4
2020-Jul-09 03:30 080 1 gusting 3 24.1
2020-Jul-09 02:30 162 4 gusting 6 24.6
2020-Jul-09 01:30 077 3 gusting 6 25.0
2020-Jul-09 00:30 154 3 gusting 5 26.1
2020-Jul-08 23:30 164 6 gusting 10 27.9
2020-Jul-08 22:30 071 8 gusting 12 28.9
2020-Jul-08 21:30 069 9 gusting 12 29.2
2020-Jul-08 20:30 088 6 gusting 9 29.6
2020-Jul-08 19:30 164 8 gusting 14 29.3
2020-Jul-08 18:30 170 8 gusting 12 29.6
2020-Jul-08 17:30 186 8 gusting 12 29.0
2020-Jul-08 16:30 158 9 gusting 15 29.4
2020-Jul-08 15:30 157 7 gusting 10 28.8
2020-Jul-08 14:30 047 7 gusting 10 28.4
2020-Jul-08 13:30 130 5 gusting 8 26.8
2020-Jul-08 12:30 056 2 gusting 5 25.4
2020-Jul-08 11:30 062 0 gusting 1 22.9
2020-Jul-08 10:30 180 1 gusting 3 22.8